sensor_id;sensor_type;location;lat;lon;timestamp;temperature;humidity
7461;DHT22;6757;52.258;12.840;2022-12-18T00:02:15;-6.00;99.90
7461;DHT22;6757;52.258;12.840;2022-12-18T00:04:42;-6.00;99.90
7461;DHT22;6757;52.258;12.840;2022-12-18T00:07:10;-6.00;99.90
7461;DHT22;6757;52.258;12.840;2022-12-18T00:09:37;-6.00;99.90
7461;DHT22;6757;52.258;12.840;2022-12-18T00:12:05;-6.00;99.90
7461;DHT22;6757;52.258;12.840;2022-12-18T00:14:32;-6.10;99.90
7461;DHT22;6757;52.258;12.840;2022-12-18T00:16:59;-6.10;99.90
7461;DHT22;6757;52.258;12.840;2022-12-18T00:19:26;-6.10;99.90
7461;DHT22;6757;52.258;12.840;2022-12-18T00:21:53;-6.10;99.90
7461;DHT22;6757;52.258;12.840;2022-12-18T00:24:22;-6.10;99.90
7461;DHT22;6757;52.258;12.840;2022-12-18T00:26:48;-6.10;99.90
7461;DHT22;6757;52.258;12.840;2022-12-18T00:29:15;-6.10;99.90
7461;DHT22;6757;52.258;12.840;2022-12-18T00:31:43;-6.10;99.90
7461;DHT22;6757;52.258;12.840;2022-12-18T00:34:10;-6.10;99.90
7461;DHT22;6757;52.258;12.840;2022-12-18T00:36:38;-6.10;99.90
7461;DHT22;6757;52.258;12.840;2022-12-18T00:39:05;-6.10;99.90
7461;DHT22;6757;52.258;12.840;2022-12-18T00:41:34;-6.20;99.90
7461;DHT22;6757;52.258;12.840;2022-12-18T00:44:19;-6.10;99.90
7461;DHT22;6757;52.258;12.840;2022-12-18T00:46:47;-6.10;99.90
7461;DHT22;6757;52.258;12.840;2022-12-18T00:49:14;-6.10;99.90
7461;DHT22;6757;52.258;12.840;2022-12-18T00:51:42;-6.10;99.90
7461;DHT22;6757;52.258;12.840;2022-12-18T00:54:09;-6.20;99.90
7461;DHT22;6757;52.258;12.840;2022-12-18T00:56:38;-6.20;99.90
7461;DHT22;6757;52.258;12.840;2022-12-18T00:59:05;-6.20;99.90
7461;DHT22;6757;52.258;12.840;2022-12-18T01:01:33;-6.30;99.90
7461;DHT22;6757;52.258;12.840;2022-12-18T01:04:01;-6.30;99.90
7461;DHT22;6757;52.258;12.840;2022-12-18T01:06:29;-6.30;99.90
7461;DHT22;6757;52.258;12.840;2022-12-18T01:08:56;-6.30;99.90
7461;DHT22;6757;52.258;12.840;2022-12-18T01:11:24;-6.20;99.90
7461;DHT22;6757;52.258;12.840;2022-12-18T01:13:53;-6.30;99.90
7461;DHT22;6757;52.258;12.840;2022-12-18T01:16:21;-6.30;99.90
7461;DHT22;6757;52.258;12.840;2022-12-18T01:18:51;-6.30;99.90
7461;DHT22;6757;52.258;12.840;2022-12-18T01:21:20;-6.30;99.90
7461;DHT22;6757;52.258;12.840;2022-12-18T01:23:51;-6.30;99.90
7461;DHT22;6757;52.258;12.840;2022-12-18T01:26:18;-6.40;99.90
7461;DHT22;6757;52.258;12.840;2022-12-18T01:28:45;-6.40;99.90
7461;DHT22;6757;52.258;12.840;2022-12-18T01:31:16;-6.40;99.90
7461;DHT22;6757;52.258;12.840;2022-12-18T01:33:45;-6.40;99.90
7461;DHT22;6757;52.258;12.840;2022-12-18T01:36:16;-6.40;99.90
7461;DHT22;6757;52.258;12.840;2022-12-18T01:38:45;-6.50;99.90
7461;DHT22;6757;52.258;12.840;2022-12-18T01:41:13;-6.20;99.90
7461;DHT22;6757;52.258;12.840;2022-12-18T01:43:46;-6.40;99.90
7461;DHT22;6757;52.258;12.840;2022-12-18T01:46:18;-6.50;99.90
7461;DHT22;6757;52.258;12.840;2022-12-18T01:48:48;-6.40;99.90
7461;DHT22;6757;52.258;12.840;2022-12-18T01:51:16;-6.40;99.90
7461;DHT22;6757;52.258;12.840;2022-12-18T01:53:44;-6.40;99.90
7461;DHT22;6757;52.258;12.840;2022-12-18T01:56:14;-6.40;99.90
7461;DHT22;6757;52.258;12.840;2022-12-18T01:58:48;-6.40;99.90
7461;DHT22;6757;52.258;12.840;2022-12-18T02:01:22;-6.40;99.90
7461;DHT22;6757;52.258;12.840;2022-12-18T02:03:51;-6.40;99.90
7461;DHT22;6757;52.258;12.840;2022-12-18T02:06:20;-6.40;99.90
7461;DHT22;6757;52.258;12.840;2022-12-18T02:08:59;-6.40;99.90
7461;DHT22;6757;52.258;12.840;2022-12-18T02:11:39;-6.40;99.90
7461;DHT22;6757;52.258;12.840;2022-12-18T02:14:17;-6.40;99.90
7461;DHT22;6757;52.258;12.840;2022-12-18T02:16:52;-6.40;99.90
7461;DHT22;6757;52.258;12.840;2022-12-18T02:19:44;-6.40;99.90
7461;DHT22;6757;52.258;12.840;2022-12-18T02:22:26;-6.40;99.90
7461;DHT22;6757;52.258;12.840;2022-12-18T02:25:05;-6.40;99.90
7461;DHT22;6757;52.258;12.840;2022-12-18T02:27:42;-6.40;99.90
7461;DHT22;6757;52.258;12.840;2022-12-18T02:30:11;-6.40;99.90
7461;DHT22;6757;52.258;12.840;2022-12-18T02:32:40;-6.40;99.90
7461;DHT22;6757;52.258;12.840;2022-12-18T02:35:13;-6.40;99.90
7461;DHT22;6757;52.258;12.840;2022-12-18T02:37:43;-6.40;99.90
7461;DHT22;6757;52.258;12.840;2022-12-18T02:40:12;-6.20;99.90
7461;DHT22;6757;52.258;12.840;2022-12-18T02:42:42;-6.40;99.90
7461;DHT22;6757;52.258;12.840;2022-12-18T02:45:09;-6.40;99.90
7461;DHT22;6757;52.258;12.840;2022-12-18T02:47:39;-6.40;99.90
7461;DHT22;6757;52.258;12.840;2022-12-18T02:50:16;-6.40;99.90
7461;DHT22;6757;52.258;12.840;2022-12-18T02:52:54;-6.30;99.90
7461;DHT22;6757;52.258;12.840;2022-12-18T02:55:34;-6.30;99.90
7461;DHT22;6757;52.258;12.840;2022-12-18T02:58:16;-6.30;99.90
7461;DHT22;6757;52.258;12.840;2022-12-18T03:00:50;-6.30;99.90
7461;DHT22;6757;52.258;12.840;2022-12-18T03:03:24;-6.30;99.90
7461;DHT22;6757;52.258;12.840;2022-12-18T03:05:57;-6.20;99.90
7461;DHT22;6757;52.258;12.840;2022-12-18T03:08:31;-6.20;99.90
7461;DHT22;6757;52.258;12.840;2022-12-18T03:11:03;-6.20;99.90
7461;DHT22;6757;52.258;12.840;2022-12-18T03:13:37;-6.20;99.90
7461;DHT22;6757;52.258;12.840;2022-12-18T03:16:08;-6.20;99.90
7461;DHT22;6757;52.258;12.840;2022-12-18T03:18:38;-6.20;99.90
7461;DHT22;6757;52.258;12.840;2022-12-18T03:21:10;-6.20;99.90
7461;DHT22;6757;52.258;12.840;2022-12-18T03:23:42;-6.20;99.90
7461;DHT22;6757;52.258;12.840;2022-12-18T03:26:16;-6.20;99.90
7461;DHT22;6757;52.258;12.840;2022-12-18T03:28:49;-6.20;99.90
7461;DHT22;6757;52.258;12.840;2022-12-18T03:31:20;-6.10;99.90
7461;DHT22;6757;52.258;12.840;2022-12-18T03:33:53;-6.10;99.90
7461;DHT22;6757;52.258;12.840;2022-12-18T03:36:20;-6.10;99.90
7461;DHT22;6757;52.258;12.840;2022-12-18T03:38:47;-6.00;99.90
7461;DHT22;6757;52.258;12.840;2022-12-18T03:41:18;-6.10;99.90
7461;DHT22;6757;52.258;12.840;2022-12-18T03:43:52;-6.10;99.90
7461;DHT22;6757;52.258;12.840;2022-12-18T03:46:26;-6.00;99.90
7461;DHT22;6757;52.258;12.840;2022-12-18T03:48:59;-6.10;99.90
7461;DHT22;6757;52.258;12.840;2022-12-18T03:51:33;-6.00;99.90
7461;DHT22;6757;52.258;12.840;2022-12-18T03:54:06;-6.00;99.90
7461;DHT22;6757;52.258;12.840;2022-12-18T03:56:38;-6.10;99.90
7461;DHT22;6757;52.258;12.840;2022-12-18T03:59:11;-6.00;99.90
7461;DHT22;6757;52.258;12.840;2022-12-18T04:01:42;-6.00;99.90
7461;DHT22;6757;52.258;12.840;2022-12-18T04:04:13;-6.00;99.90
7461;DHT22;6757;52.258;12.840;2022-12-18T04:06:41;-6.00;99.90
7461;DHT22;6757;52.258;12.840;2022-12-18T04:09:08;-6.00;99.90
7461;DHT22;6757;52.258;12.840;2022-12-18T04:11:35;-6.00;99.90
7461;DHT22;6757;52.258;12.840;2022-12-18T04:14:02;-6.00;99.90
7461;DHT22;6757;52.258;12.840;2022-12-18T04:16:30;-6.00;99.90
7461;DHT22;6757;52.258;12.840;2022-12-18T04:18:57;-6.00;99.90
7461;DHT22;6757;52.258;12.840;2022-12-18T04:21:24;-6.00;99.90
7461;DHT22;6757;52.258;12.840;2022-12-18T04:23:51;-6.10;99.90
7461;DHT22;6757;52.258;12.840;2022-12-18T04:26:18;-6.10;99.90
7461;DHT22;6757;52.258;12.840;2022-12-18T04:28:45;-6.10;99.90
7461;DHT22;6757;52.258;12.840;2022-12-18T04:31:12;-6.10;99.90
7461;DHT22;6757;52.258;12.840;2022-12-18T04:33:40;-6.10;99.90
7461;DHT22;6757;52.258;12.840;2022-12-18T04:36:07;-6.00;99.90
7461;DHT22;6757;52.258;12.840;2022-12-18T04:38:34;-6.10;99.90
7461;DHT22;6757;52.258;12.840;2022-12-18T04:41:01;-6.10;99.90
7461;DHT22;6757;52.258;12.840;2022-12-18T04:43:28;-6.20;99.90
7461;DHT22;6757;52.258;12.840;2022-12-18T04:46:01;-6.20;99.90
7461;DHT22;6757;52.258;12.840;2022-12-18T04:48:29;-6.20;99.90
7461;DHT22;6757;52.258;12.840;2022-12-18T04:50:57;-6.30;99.90
7461;DHT22;6757;52.258;12.840;2022-12-18T04:53:24;-6.30;99.90
7461;DHT22;6757;52.258;12.840;2022-12-18T04:56:02;-6.30;99.90
7461;DHT22;6757;52.258;12.840;2022-12-18T04:58:32;-6.30;99.90
7461;DHT22;6757;52.258;12.840;2022-12-18T05:01:00;-6.30;99.90
7461;DHT22;6757;52.258;12.840;2022-12-18T05:03:28;-6.30;99.90
7461;DHT22;6757;52.258;12.840;2022-12-18T05:05:55;-6.30;99.90
7461;DHT22;6757;52.258;12.840;2022-12-18T05:08:23;-6.30;99.90
7461;DHT22;6757;52.258;12.840;2022-12-18T05:10:58;-6.30;99.90
7461;DHT22;6757;52.258;12.840;2022-12-18T05:13:26;-6.30;99.90
7461;DHT22;6757;52.258;12.840;2022-12-18T05:15:53;-6.30;99.90
7461;DHT22;6757;52.258;12.840;2022-12-18T05:18:21;-6.30;99.90
7461;DHT22;6757;52.258;12.840;2022-12-18T05:20:49;-6.30;99.90
7461;DHT22;6757;52.258;12.840;2022-12-18T05:23:19;-6.30;99.90
7461;DHT22;6757;52.258;12.840;2022-12-18T05:25:49;-6.30;99.90
7461;DHT22;6757;52.258;12.840;2022-12-18T05:28:17;-6.30;99.90
7461;DHT22;6757;52.258;12.840;2022-12-18T05:30:47;-6.30;99.90
7461;DHT22;6757;52.258;12.840;2022-12-18T05:33:16;-6.20;99.90
7461;DHT22;6757;52.258;12.840;2022-12-18T05:35:43;-6.20;99.90
7461;DHT22;6757;52.258;12.840;2022-12-18T05:38:10;-6.20;99.90
7461;DHT22;6757;52.258;12.840;2022-12-18T05:40:41;-6.20;99.90
7461;DHT22;6757;52.258;12.840;2022-12-18T05:43:08;-6.20;99.90
7461;DHT22;6757;52.258;12.840;2022-12-18T05:45:37;-6.20;99.90
7461;DHT22;6757;52.258;12.840;2022-12-18T05:48:05;-6.20;99.90
7461;DHT22;6757;52.258;12.840;2022-12-18T05:50:44;-6.20;99.90
7461;DHT22;6757;52.258;12.840;2022-12-18T05:53:18;-6.20;99.90
7461;DHT22;6757;52.258;12.840;2022-12-18T05:55:49;-6.20;99.90
7461;DHT22;6757;52.258;12.840;2022-12-18T05:58:15;-6.10;99.90
7461;DHT22;6757;52.258;12.840;2022-12-18T06:00:45;-6.10;99.90
7461;DHT22;6757;52.258;12.840;2022-12-18T06:03:12;-6.10;99.90
7461;DHT22;6757;52.258;12.840;2022-12-18T06:05:41;-6.10;99.90
7461;DHT22;6757;52.258;12.840;2022-12-18T06:08:10;-6.10;99.90
7461;DHT22;6757;52.258;12.840;2022-12-18T06:10:38;-6.10;99.90
7461;DHT22;6757;52.258;12.840;2022-12-18T06:13:07;-6.00;99.90
7461;DHT22;6757;52.258;12.840;2022-12-18T06:15:36;-6.00;99.90
7461;DHT22;6757;52.258;12.840;2022-12-18T06:18:03;-6.00;99.90
7461;DHT22;6757;52.258;12.840;2022-12-18T06:20:30;-5.90;99.90
7461;DHT22;6757;52.258;12.840;2022-12-18T06:22:58;-5.90;99.90
7461;DHT22;6757;52.258;12.840;2022-12-18T06:25:25;-5.90;99.90
7461;DHT22;6757;52.258;12.840;2022-12-18T06:27:52;-5.80;99.90
7461;DHT22;6757;52.258;12.840;2022-12-18T06:30:20;-5.80;99.90
7461;DHT22;6757;52.258;12.840;2022-12-18T06:32:48;-5.80;99.90
7461;DHT22;6757;52.258;12.840;2022-12-18T06:35:15;-5.80;99.90
7461;DHT22;6757;52.258;12.840;2022-12-18T06:37:42;-5.70;99.90
7461;DHT22;6757;52.258;12.840;2022-12-18T06:40:10;-5.70;99.90
7461;DHT22;6757;52.258;12.840;2022-12-18T06:42:37;-5.70;99.90
7461;DHT22;6757;52.258;12.840;2022-12-18T06:45:04;-5.70;99.90
7461;DHT22;6757;52.258;12.840;2022-12-18T06:47:33;-5.60;99.90
7461;DHT22;6757;52.258;12.840;2022-12-18T06:50:00;-5.60;99.90
7461;DHT22;6757;52.258;12.840;2022-12-18T06:52:27;-5.60;99.90
7461;DHT22;6757;52.258;12.840;2022-12-18T06:54:54;-5.60;99.90
7461;DHT22;6757;52.258;12.840;2022-12-18T06:57:20;-5.60;99.90
7461;DHT22;6757;52.258;12.840;2022-12-18T06:59:47;-5.50;99.90
7461;DHT22;6757;52.258;12.840;2022-12-18T07:02:14;-5.50;99.90
7461;DHT22;6757;52.258;12.840;2022-12-18T07:04:43;-5.50;99.90
7461;DHT22;6757;52.258;12.840;2022-12-18T07:07:10;-5.50;99.90
7461;DHT22;6757;52.258;12.840;2022-12-18T07:09:36;-5.50;99.90
7461;DHT22;6757;52.258;12.840;2022-12-18T07:12:04;-5.50;99.90
7461;DHT22;6757;52.258;12.840;2022-12-18T07:14:32;-5.40;99.90
7461;DHT22;6757;52.258;12.840;2022-12-18T07:16:59;-5.40;99.90
7461;DHT22;6757;52.258;12.840;2022-12-18T07:19:26;-5.40;99.90
7461;DHT22;6757;52.258;12.840;2022-12-18T07:21:54;-5.30;99.90
7461;DHT22;6757;52.258;12.840;2022-12-18T07:24:21;-5.30;99.90
7461;DHT22;6757;52.258;12.840;2022-12-18T07:26:48;-5.30;99.90
7461;DHT22;6757;52.258;12.840;2022-12-18T07:29:15;-5.30;99.90
7461;DHT22;6757;52.258;12.840;2022-12-18T07:31:42;-5.30;99.90
7461;DHT22;6757;52.258;12.840;2022-12-18T07:34:10;-5.30;99.90
7461;DHT22;6757;52.258;12.840;2022-12-18T07:36:38;-5.30;99.90
7461;DHT22;6757;52.258;12.840;2022-12-18T07:39:06;-5.30;99.90
7461;DHT22;6757;52.258;12.840;2022-12-18T07:41:33;-5.20;99.90
7461;DHT22;6757;52.258;12.840;2022-12-18T07:44:00;-5.20;99.90
7461;DHT22;6757;52.258;12.840;2022-12-18T07:46:27;-5.20;99.90
7461;DHT22;6757;52.258;12.840;2022-12-18T07:48:54;-5.10;99.90
7461;DHT22;6757;52.258;12.840;2022-12-18T07:51:21;-5.10;99.90
7461;DHT22;6757;52.258;12.840;2022-12-18T07:53:48;-5.00;99.90
7461;DHT22;6757;52.258;12.840;2022-12-18T07:56:16;-5.00;99.90
7461;DHT22;6757;52.258;12.840;2022-12-18T07:58:43;-4.90;99.90
7461;DHT22;6757;52.258;12.840;2022-12-18T08:01:13;-4.80;99.90
7461;DHT22;6757;52.258;12.840;2022-12-18T08:03:40;-4.80;99.90
7461;DHT22;6757;52.258;12.840;2022-12-18T08:06:09;-4.70;99.90
7461;DHT22;6757;52.258;12.840;2022-12-18T08:08:36;-4.70;99.90
7461;DHT22;6757;52.258;12.840;2022-12-18T08:11:03;-4.60;99.90
7461;DHT22;6757;52.258;12.840;2022-12-18T08:13:32;-4.60;99.90
7461;DHT22;6757;52.258;12.840;2022-12-18T08:16:00;-4.60;99.90
7461;DHT22;6757;52.258;12.840;2022-12-18T08:18:28;-4.50;99.90
7461;DHT22;6757;52.258;12.840;2022-12-18T08:21:09;-4.50;99.90
7461;DHT22;6757;52.258;12.840;2022-12-18T08:23:36;-4.50;99.90
7461;DHT22;6757;52.258;12.840;2022-12-18T08:26:03;-4.60;99.90
7461;DHT22;6757;52.258;12.840;2022-12-18T08:28:32;-4.60;99.90
7461;DHT22;6757;52.258;12.840;2022-12-18T08:30:59;-4.60;99.90
7461;DHT22;6757;52.258;12.840;2022-12-18T08:33:26;-4.60;99.90
7461;DHT22;6757;52.258;12.840;2022-12-18T08:35:53;-4.60;99.90
7461;DHT22;6757;52.258;12.840;2022-12-18T08:38:20;-4.60;99.90
7461;DHT22;6757;52.258;12.840;2022-12-18T08:40:48;-4.60;99.90
7461;DHT22;6757;52.258;12.840;2022-12-18T08:43:15;-4.60;99.90
7461;DHT22;6757;52.258;12.840;2022-12-18T08:46:01;-4.60;99.90
7461;DHT22;6757;52.258;12.840;2022-12-18T08:48:28;-4.60;99.90
7461;DHT22;6757;52.258;12.840;2022-12-18T08:50:55;-4.60;99.90
7461;DHT22;6757;52.258;12.840;2022-12-18T08:53:22;-4.50;99.90
7461;DHT22;6757;52.258;12.840;2022-12-18T08:55:49;-4.50;99.90
7461;DHT22;6757;52.258;12.840;2022-12-18T08:58:16;-4.50;99.90
7461;DHT22;6757;52.258;12.840;2022-12-18T09:00:43;-4.60;99.90
7461;DHT22;6757;52.258;12.840;2022-12-18T09:03:13;-4.60;99.90
7461;DHT22;6757;52.258;12.840;2022-12-18T09:05:40;-4.60;99.90
7461;DHT22;6757;52.258;12.840;2022-12-18T09:08:08;-4.60;99.90
7461;DHT22;6757;52.258;12.840;2022-12-18T09:10:41;-4.60;99.90
7461;DHT22;6757;52.258;12.840;2022-12-18T09:13:10;-4.60;99.90
7461;DHT22;6757;52.258;12.840;2022-12-18T09:15:40;-4.60;99.90
7461;DHT22;6757;52.258;12.840;2022-12-18T09:18:08;-4.60;99.90
7461;DHT22;6757;52.258;12.840;2022-12-18T09:20:37;-4.60;99.90
7461;DHT22;6757;52.258;12.840;2022-12-18T09:23:05;-4.50;99.90
7461;DHT22;6757;52.258;12.840;2022-12-18T09:25:33;-4.50;99.90
7461;DHT22;6757;52.258;12.840;2022-12-18T09:28:01;-4.50;99.90
7461;DHT22;6757;52.258;12.840;2022-12-18T09:30:29;-4.50;99.90
7461;DHT22;6757;52.258;12.840;2022-12-18T09:32:58;-4.50;99.90
7461;DHT22;6757;52.258;12.840;2022-12-18T09:35:25;-4.40;99.90
7461;DHT22;6757;52.258;12.840;2022-12-18T09:37:54;-4.40;99.90
7461;DHT22;6757;52.258;12.840;2022-12-18T09:40:25;-4.30;99.90
7461;DHT22;6757;52.258;12.840;2022-12-18T09:42:56;-4.30;99.90
7461;DHT22;6757;52.258;12.840;2022-12-18T09:45:25;-4.20;99.90
7461;DHT22;6757;52.258;12.840;2022-12-18T09:47:52;-4.10;99.90
7461;DHT22;6757;52.258;12.840;2022-12-18T09:50:24;-4.00;99.90
7461;DHT22;6757;52.258;12.840;2022-12-18T09:52:59;-4.00;99.90
7461;DHT22;6757;52.258;12.840;2022-12-18T09:55:31;-4.00;99.90
7461;DHT22;6757;52.258;12.840;2022-12-18T09:58:04;-4.00;99.90
7461;DHT22;6757;52.258;12.840;2022-12-18T10:00:33;-4.00;99.90
7461;DHT22;6757;52.258;12.840;2022-12-18T10:03:05;-4.00;99.90
7461;DHT22;6757;52.258;12.840;2022-12-18T10:05:41;-3.90;99.90
7461;DHT22;6757;52.258;12.840;2022-12-18T10:08:17;-3.90;99.90
7461;DHT22;6757;52.258;12.840;2022-12-18T10:10:48;-3.90;99.90
7461;DHT22;6757;52.258;12.840;2022-12-18T10:13:23;-3.90;99.90
7461;DHT22;6757;52.258;12.840;2022-12-18T10:16:03;-3.90;99.90
7461;DHT22;6757;52.258;12.840;2022-12-18T10:18:57;-3.90;99.90
7461;DHT22;6757;52.258;12.840;2022-12-18T10:21:33;-3.90;99.90
7461;DHT22;6757;52.258;12.840;2022-12-18T10:24:13;-3.80;99.90
7461;DHT22;6757;52.258;12.840;2022-12-18T10:26:52;-3.90;99.90
7461;DHT22;6757;52.258;12.840;2022-12-18T10:29:19;-3.80;99.90
7461;DHT22;6757;52.258;12.840;2022-12-18T10:31:46;-3.80;99.90
7461;DHT22;6757;52.258;12.840;2022-12-18T10:34:13;-3.80;99.90
7461;DHT22;6757;52.258;12.840;2022-12-18T10:36:41;-3.70;99.90
7461;DHT22;6757;52.258;12.840;2022-12-18T10:39:17;-3.60;99.90
7461;DHT22;6757;52.258;12.840;2022-12-18T10:41:45;-3.60;99.90
7461;DHT22;6757;52.258;12.840;2022-12-18T10:44:17;-3.60;99.90
7461;DHT22;6757;52.258;12.840;2022-12-18T10:46:46;-3.60;99.90
7461;DHT22;6757;52.258;12.840;2022-12-18T10:49:21;-3.60;99.90
7461;DHT22;6757;52.258;12.840;2022-12-18T10:51:50;-3.70;99.90
7461;DHT22;6757;52.258;12.840;2022-12-18T10:54:21;-3.70;99.90
7461;DHT22;6757;52.258;12.840;2022-12-18T10:56:49;-3.70;99.90
7461;DHT22;6757;52.258;12.840;2022-12-18T10:59:17;-3.70;99.90
7461;DHT22;6757;52.258;12.840;2022-12-18T11:01:50;-3.70;99.90
7461;DHT22;6757;52.258;12.840;2022-12-18T11:04:22;-3.70;99.90
7461;DHT22;6757;52.258;12.840;2022-12-18T11:06:55;-3.70;99.90
7461;DHT22;6757;52.258;12.840;2022-12-18T11:09:26;-3.70;99.90
7461;DHT22;6757;52.258;12.840;2022-12-18T11:11:58;-3.70;99.90
7461;DHT22;6757;52.258;12.840;2022-12-18T11:14:28;-3.70;99.90
7461;DHT22;6757;52.258;12.840;2022-12-18T11:16:58;-3.80;99.90
7461;DHT22;6757;52.258;12.840;2022-12-18T11:19:33;-3.80;99.90
7461;DHT22;6757;52.258;12.840;2022-12-18T11:22:02;-3.80;99.90
7461;DHT22;6757;52.258;12.840;2022-12-18T11:24:33;-3.80;99.90
7461;DHT22;6757;52.258;12.840;2022-12-18T11:27:03;-3.90;99.90
7461;DHT22;6757;52.258;12.840;2022-12-18T11:29:34;-3.90;99.90
7461;DHT22;6757;52.258;12.840;2022-12-18T11:32:25;-3.90;99.90
7461;DHT22;6757;52.258;12.840;2022-12-18T11:35:00;-3.80;99.90
7461;DHT22;6757;52.258;12.840;2022-12-18T11:37:31;-3.90;99.90
7461;DHT22;6757;52.258;12.840;2022-12-18T11:40:03;-3.80;99.90
7461;DHT22;6757;52.258;12.840;2022-12-18T11:42:37;-3.90;99.90
7461;DHT22;6757;52.258;12.840;2022-12-18T11:45:23;-3.90;99.90
7461;DHT22;6757;52.258;12.840;2022-12-18T11:47:56;-3.90;99.90
7461;DHT22;6757;52.258;12.840;2022-12-18T11:50:29;-3.90;99.90
7461;DHT22;6757;52.258;12.840;2022-12-18T11:52:59;-3.90;99.90
7461;DHT22;6757;52.258;12.840;2022-12-18T11:55:36;-3.90;99.90
7461;DHT22;6757;52.258;12.840;2022-12-18T11:58:12;-3.80;99.90
7461;DHT22;6757;52.258;12.840;2022-12-18T12:00:47;-3.70;99.90
7461;DHT22;6757;52.258;12.840;2022-12-18T12:03:27;-3.70;99.90
7461;DHT22;6757;52.258;12.840;2022-12-18T12:06:21;-3.80;99.90
7461;DHT22;6757;52.258;12.840;2022-12-18T12:09:02;-3.80;99.90
7461;DHT22;6757;52.258;12.840;2022-12-18T12:11:43;-3.90;99.90
7461;DHT22;6757;52.258;12.840;2022-12-18T12:14:29;-3.90;99.90
7461;DHT22;6757;52.258;12.840;2022-12-18T12:17:11;-3.90;99.90
7461;DHT22;6757;52.258;12.840;2022-12-18T12:19:51;-3.90;99.90
7461;DHT22;6757;52.258;12.840;2022-12-18T12:22:26;-3.80;99.90
7461;DHT22;6757;52.258;12.840;2022-12-18T12:25:13;-3.80;99.90
7461;DHT22;6757;52.258;12.840;2022-12-18T12:27:54;-3.80;99.90
7461;DHT22;6757;52.258;12.840;2022-12-18T12:30:30;-3.70;99.90
7461;DHT22;6757;52.258;12.840;2022-12-18T12:33:10;-3.70;99.90
7461;DHT22;6757;52.258;12.840;2022-12-18T12:35:51;-3.70;99.90
7461;DHT22;6757;52.258;12.840;2022-12-18T12:38:30;-3.70;99.90
7461;DHT22;6757;52.258;12.840;2022-12-18T12:41:01;-3.70;99.90
7461;DHT22;6757;52.258;12.840;2022-12-18T12:43:37;-3.70;99.90
7461;DHT22;6757;52.258;12.840;2022-12-18T12:46:09;-3.70;99.90
7461;DHT22;6757;52.258;12.840;2022-12-18T12:48:41;-3.70;99.90
7461;DHT22;6757;52.258;12.840;2022-12-18T12:51:15;-3.70;99.90
7461;DHT22;6757;52.258;12.840;2022-12-18T12:53:44;-3.70;99.90
7461;DHT22;6757;52.258;12.840;2022-12-18T12:56:13;-3.70;99.90
7461;DHT22;6757;52.258;12.840;2022-12-18T12:58:49;-3.70;99.90
7461;DHT22;6757;52.258;12.840;2022-12-18T13:01:26;-3.70;99.90
7461;DHT22;6757;52.258;12.840;2022-12-18T13:04:03;-3.70;99.90
7461;DHT22;6757;52.258;12.840;2022-12-18T13:06:42;-3.70;99.90
7461;DHT22;6757;52.258;12.840;2022-12-18T13:09:11;-3.70;99.90
7461;DHT22;6757;52.258;12.840;2022-12-18T13:11:39;-3.60;99.90
7461;DHT22;6757;52.258;12.840;2022-12-18T13:14:30;-3.60;99.90
7461;DHT22;6757;52.258;12.840;2022-12-18T13:17:31;-3.60;99.90
7461;DHT22;6757;52.258;12.840;2022-12-18T13:20:19;-3.60;99.90
7461;DHT22;6757;52.258;12.840;2022-12-18T13:22:47;-3.60;99.90
7461;DHT22;6757;52.258;12.840;2022-12-18T13:25:34;-3.60;99.90
7461;DHT22;6757;52.258;12.840;2022-12-18T13:28:12;-3.60;99.90
7461;DHT22;6757;52.258;12.840;2022-12-18T13:30:49;-3.60;99.90
7461;DHT22;6757;52.258;12.840;2022-12-18T13:33:47;-3.60;99.90
7461;DHT22;6757;52.258;12.840;2022-12-18T13:36:25;-3.60;99.90
7461;DHT22;6757;52.258;12.840;2022-12-18T13:39:31;-3.70;99.90
7461;DHT22;6757;52.258;12.840;2022-12-18T13:45:38;-3.70;99.90
7461;DHT22;6757;52.258;12.840;2022-12-18T13:48:16;-3.70;99.90
7461;DHT22;6757;52.258;12.840;2022-12-18T13:50:52;-3.70;99.90
7461;DHT22;6757;52.258;12.840;2022-12-18T13:53:24;-3.70;99.90
7461;DHT22;6757;52.258;12.840;2022-12-18T13:55:54;-3.80;99.90
7461;DHT22;6757;52.258;12.840;2022-12-18T13:58:21;-3.80;99.90
7461;DHT22;6757;52.258;12.840;2022-12-18T14:00:48;-3.80;99.90
7461;DHT22;6757;52.258;12.840;2022-12-18T14:03:19;-3.80;99.90
7461;DHT22;6757;52.258;12.840;2022-12-18T14:05:54;-3.90;99.90
7461;DHT22;6757;52.258;12.840;2022-12-18T14:08:33;-3.90;99.90
7461;DHT22;6757;52.258;12.840;2022-12-18T14:11:05;-3.90;99.90
7461;DHT22;6757;52.258;12.840;2022-12-18T14:13:36;-3.90;99.90
7461;DHT22;6757;52.258;12.840;2022-12-18T14:16:05;-3.90;99.90
7461;DHT22;6757;52.258;12.840;2022-12-18T14:18:41;-3.90;99.90
7461;DHT22;6757;52.258;12.840;2022-12-18T14:21:19;-3.90;99.90
7461;DHT22;6757;52.258;12.840;2022-12-18T14:23:49;-3.90;99.90
7461;DHT22;6757;52.258;12.840;2022-12-18T14:26:22;-3.90;99.90
7461;DHT22;6757;52.258;12.840;2022-12-18T14:28:52;-3.90;99.90
7461;DHT22;6757;52.258;12.840;2022-12-18T14:31:22;-3.90;99.90
7461;DHT22;6757;52.258;12.840;2022-12-18T14:33:52;-3.90;99.90
7461;DHT22;6757;52.258;12.840;2022-12-18T14:36:21;-3.90;99.90
7461;DHT22;6757;52.258;12.840;2022-12-18T14:38:51;-3.90;99.90
7461;DHT22;6757;52.258;12.840;2022-12-18T14:41:20;-4.00;99.90
7461;DHT22;6757;52.258;12.840;2022-12-18T14:43:49;-4.00;99.90
7461;DHT22;6757;52.258;12.840;2022-12-18T14:46:29;-4.00;99.90
7461;DHT22;6757;52.258;12.840;2022-12-18T14:49:03;-4.00;99.90
7461;DHT22;6757;52.258;12.840;2022-12-18T14:51:33;-4.00;99.90
7461;DHT22;6757;52.258;12.840;2022-12-18T14:54:01;-4.00;99.90
7461;DHT22;6757;52.258;12.840;2022-12-18T14:56:31;-4.00;99.90
7461;DHT22;6757;52.258;12.840;2022-12-18T14:59:01;-4.00;99.90
7461;DHT22;6757;52.258;12.840;2022-12-18T15:01:31;-4.00;99.90
7461;DHT22;6757;52.258;12.840;2022-12-18T15:04:03;-4.00;99.90
7461;DHT22;6757;52.258;12.840;2022-12-18T15:06:34;-4.00;99.90
7461;DHT22;6757;52.258;12.840;2022-12-18T15:09:03;-4.00;99.90
7461;DHT22;6757;52.258;12.840;2022-12-18T15:11:35;-4.00;99.90
7461;DHT22;6757;52.258;12.840;2022-12-18T15:14:33;-4.00;99.90
7461;DHT22;6757;52.258;12.840;2022-12-18T15:17:06;-4.00;99.90
7461;DHT22;6757;52.258;12.840;2022-12-18T15:19:44;-4.10;99.90
7461;DHT22;6757;52.258;12.840;2022-12-18T15:22:20;-4.10;99.90
7461;DHT22;6757;52.258;12.840;2022-12-18T15:24:48;-4.10;99.90
7461;DHT22;6757;52.258;12.840;2022-12-18T15:27:25;-4.20;99.90
7461;DHT22;6757;52.258;12.840;2022-12-18T15:30:19;-4.20;99.90
7461;DHT22;6757;52.258;12.840;2022-12-18T15:32:48;-4.20;99.90
7461;DHT22;6757;52.258;12.840;2022-12-18T15:35:20;-4.20;99.90
7461;DHT22;6757;52.258;12.840;2022-12-18T15:37:48;-4.20;99.90
7461;DHT22;6757;52.258;12.840;2022-12-18T15:40:18;-4.20;99.90
7461;DHT22;6757;52.258;12.840;2022-12-18T15:42:50;-4.10;99.90
7461;DHT22;6757;52.258;12.840;2022-12-18T15:45:36;-4.10;99.90
7461;DHT22;6757;52.258;12.840;2022-12-18T15:48:15;-4.00;99.90
7461;DHT22;6757;52.258;12.840;2022-12-18T15:50:48;-3.80;99.90
7461;DHT22;6757;52.258;12.840;2022-12-18T15:53:15;-3.70;99.90
7461;DHT22;6757;52.258;12.840;2022-12-18T15:55:42;-3.60;99.90
7461;DHT22;6757;52.258;12.840;2022-12-18T15:58:26;-3.60;99.90
7461;DHT22;6757;52.258;12.840;2022-12-18T16:00:55;-3.60;99.90
7461;DHT22;6757;52.258;12.840;2022-12-18T16:03:23;-3.70;99.90
7461;DHT22;6757;52.258;12.840;2022-12-18T16:05:52;-3.80;99.90
7461;DHT22;6757;52.258;12.840;2022-12-18T16:08:19;-3.90;99.90
7461;DHT22;6757;52.258;12.840;2022-12-18T16:10:45;-4.00;99.90
7461;DHT22;6757;52.258;12.840;2022-12-18T16:13:16;-4.10;99.90
7461;DHT22;6757;52.258;12.840;2022-12-18T16:15:45;-4.20;99.90